createdAt,value
2022-12-23T00:01:05.119Z,10.62
2022-12-23T00:03:34.021Z,10.63
2022-12-23T00:06:02.390Z,10.69
2022-12-23T00:08:31.649Z,10.43
2022-12-23T00:10:59.584Z,10.47
2022-12-23T00:13:45.137Z,10.53
2022-12-23T00:16:15.298Z,10.44
2022-12-23T00:18:43.916Z,10.61
2022-12-23T00:21:13.780Z,10.31
2022-12-23T00:23:44.514Z,10.40
2022-12-23T00:26:16.373Z,10.49
2022-12-23T00:28:44.324Z,10.47
2022-12-23T00:31:13.556Z,10.44
2022-12-23T00:33:43.160Z,10.56
2022-12-23T00:36:16.469Z,10.60
2022-12-23T00:39:03.270Z,10.58
2022-12-23T00:41:48.692Z,10.53
2022-12-23T00:44:16.726Z,10.47
2022-12-23T00:46:44.583Z,10.35
2022-12-23T00:49:31.474Z,10.59
2022-12-23T00:51:59.811Z,10.55
2022-12-23T00:54:29.375Z,10.54
2022-12-23T00:56:57.195Z,10.62
2022-12-23T00:59:25.059Z,10.52
2022-12-23T01:02:10.450Z,10.26
2022-12-23T01:04:56.211Z,10.56
2022-12-23T01:07:25.063Z,10.69
2022-12-23T01:09:54.293Z,10.63
2022-12-23T01:12:22.463Z,10.67
2022-12-23T01:14:50.342Z,10.73
2022-12-23T01:17:18.307Z,10.62
2022-12-23T01:19:46.206Z,10.49
2022-12-23T01:22:14.093Z,10.61
2022-12-23T01:24:41.965Z,10.53
2022-12-23T01:27:11.178Z,10.46
2022-12-23T01:29:39.011Z,10.40
2022-12-23T01:32:06.963Z,10.41
2022-12-23T01:34:37.403Z,10.62
2022-12-23T01:37:05.839Z,10.54
2022-12-23T01:39:33.823Z,10.40
2022-12-23T01:42:19.227Z,10.61
2022-12-23T01:44:56.471Z,10.50
2022-12-23T01:47:30.651Z,10.06
2022-12-23T01:50:04.012Z,10.37
2022-12-23T01:52:32.799Z,10.32
2022-12-23T01:55:00.733Z,10.46
2022-12-23T01:57:29.790Z,10.41
2022-12-23T02:00:16.575Z,10.42
2022-12-23T02:03:03.927Z,10.56
2022-12-23T02:05:32.014Z,10.56
2022-12-23T02:08:17.446Z,10.68
2022-12-23T02:11:20.314Z,10.58
2022-12-23T02:14:14.815Z,10.43
2022-12-23T02:16:53.315Z,10.43
2022-12-23T02:19:40.757Z,10.55
2022-12-23T02:22:34.538Z,10.48
2022-12-23T02:25:30.279Z,10.37
2022-12-23T02:28:18.127Z,10.19
2022-12-23T02:30:53.059Z,10.50
2022-12-23T02:33:36.323Z,10.60
2022-12-23T02:36:11.037Z,10.60
2022-12-23T02:38:49.366Z,10.53
2022-12-23T02:41:24.024Z,10.56
2022-12-23T02:43:58.502Z,10.66
2022-12-23T02:46:33.887Z,10.41
2022-12-23T02:49:08.930Z,10.47
2022-12-23T02:51:41.452Z,10.25
2022-12-23T02:54:12.541Z,10.61
2022-12-23T02:56:46.394Z,10.31
2022-12-23T02:59:17.703Z,10.55
2022-12-23T03:01:48.519Z,10.35
2022-12-23T03:04:16.596Z,10.71
2022-12-23T03:06:47.182Z,10.75
2022-12-23T03:09:23.813Z,10.64
2022-12-23T03:11:59.668Z,10.78
2022-12-23T03:14:45.348Z,10.35
2022-12-23T03:17:31.707Z,10.50
2022-12-23T03:20:10.172Z,10.43
2022-12-23T03:22:44.346Z,10.41
2022-12-23T03:25:19.553Z,10.39
2022-12-23T03:27:54.753Z,10.56
2022-12-23T03:30:24.708Z,10.49
2022-12-23T03:32:58.221Z,10.49
2022-12-23T03:35:31.034Z,10.70
2022-12-23T03:38:00.303Z,10.25
2022-12-23T03:40:31.812Z,10.01
2022-12-23T03:43:10.213Z,10.28
2022-12-23T03:45:44.026Z,10.27
2022-12-23T03:48:21.843Z,10.50
2022-12-23T03:50:53.590Z,10.22
2022-12-23T03:53:26.975Z,10.37
2022-12-23T03:56:00.618Z,10.62
2022-12-23T03:58:35.960Z,10.69
2022-12-23T04:01:11.539Z,10.63
2022-12-23T04:03:50.197Z,10.42
2022-12-23T04:06:20.855Z,10.49
2022-12-23T04:08:50.391Z,10.26
2022-12-23T04:11:18.456Z,10.35
2022-12-23T04:13:48.496Z,10.56
2022-12-23T04:16:17.056Z,10.68
2022-12-23T04:18:46.362Z,10.69
2022-12-23T04:21:14.161Z,10.77
2022-12-23T04:23:42.005Z,10.65
2022-12-23T04:26:09.838Z,10.44
2022-12-23T04:28:37.686Z,10.12
2022-12-23T04:31:05.836Z,10.04
2022-12-23T04:33:33.724Z,10.08
2022-12-23T04:36:02.965Z,10.28
2022-12-23T04:38:30.873Z,10.51
2022-12-23T04:40:58.690Z,10.69
2022-12-23T04:43:26.713Z,10.50
2022-12-23T04:45:54.587Z,10.52
2022-12-23T04:48:22.443Z,10.63
2022-12-23T04:50:50.291Z,10.58
2022-12-23T04:53:19.559Z,10.64
2022-12-23T04:55:51.322Z,10.73
2022-12-23T04:58:21.950Z,10.35
2022-12-23T05:00:49.889Z,10.43
2022-12-23T05:03:18.135Z,10.48
2022-12-23T05:05:46.304Z,10.43
2022-12-23T05:08:14.157Z,10.52
2022-12-23T05:10:43.368Z,10.48
2022-12-23T05:13:11.243Z,10.54
2022-12-23T05:15:39.117Z,10.71
2022-12-23T05:18:07.024Z,10.79
2022-12-23T05:20:34.893Z,10.74
2022-12-23T05:23:02.740Z,10.50
2022-12-23T05:25:30.640Z,10.60
2022-12-23T05:27:59.825Z,10.73
2022-12-23T05:30:27.725Z,10.88
2022-12-23T05:32:56.364Z,10.74
2022-12-23T05:35:25.028Z,10.90
2022-12-23T05:37:53.435Z,10.93
2022-12-23T05:40:25.537Z,10.89
2022-12-23T05:42:57.200Z,10.94
2022-12-23T05:45:26.499Z,10.95
2022-12-23T05:47:54.370Z,11.00
2022-12-23T05:50:22.236Z,11.01
2022-12-23T05:52:50.303Z,10.96
2022-12-23T05:55:18.223Z,11.09
2022-12-23T05:57:46.117Z,10.96
2022-12-23T06:00:15.288Z,11.04
2022-12-23T06:02:49.974Z,10.97
2022-12-23T06:05:21.315Z,10.97
2022-12-23T06:07:49.244Z,11.09
2022-12-23T06:10:17.192Z,11.14
2022-12-23T06:12:45.052Z,11.16
2022-12-23T06:15:12.944Z,11.15
2022-12-23T06:17:40.790Z,10.95
2022-12-23T06:20:19.647Z,11.09
2022-12-23T06:22:48.448Z,11.19
2022-12-23T06:25:16.462Z,11.13
2022-12-23T06:27:44.302Z,11.16
2022-12-23T06:30:12.543Z,11.01
2022-12-23T06:32:40.816Z,11.09
2022-12-23T06:35:11.243Z,11.20
2022-12-23T06:37:39.272Z,11.17
2022-12-23T06:40:08.692Z,11.21
2022-12-23T06:42:36.518Z,11.25
2022-12-23T06:45:05.244Z,11.13
2022-12-23T06:47:33.077Z,11.38
2022-12-23T06:50:00.933Z,11.02
2022-12-23T06:52:30.227Z,11.37
2022-12-23T06:54:58.102Z,11.38
2022-12-23T06:57:26.036Z,11.36
2022-12-23T06:59:53.912Z,11.30
2022-12-23T07:02:21.993Z,11.46
2022-12-23T07:04:50.031Z,11.35
2022-12-23T07:07:17.911Z,11.32
2022-12-23T07:09:47.186Z,11.41
2022-12-23T07:12:15.095Z,11.46
2022-12-23T07:14:43.010Z,11.43
2022-12-23T07:17:10.895Z,11.49
2022-12-23T07:19:38.821Z,11.42
2022-12-23T07:22:06.655Z,11.45
2022-12-23T07:24:34.574Z,11.47
2022-12-23T07:27:03.910Z,11.41
2022-12-23T07:29:31.760Z,11.34
2022-12-23T07:31:59.748Z,11.45
2022-12-23T07:34:27.645Z,11.54
2022-12-23T07:36:56.422Z,11.49
2022-12-23T07:39:24.371Z,11.52
2022-12-23T07:42:08.978Z,11.23
2022-12-23T07:44:41.651Z,11.32
2022-12-23T07:47:09.541Z,11.43
2022-12-23T07:49:37.414Z,11.48
2022-12-23T07:52:05.798Z,11.27
2022-12-23T07:54:33.730Z,11.47
2022-12-23T07:57:01.692Z,11.47
2022-12-23T07:59:29.617Z,11.39
2022-12-23T08:01:59.029Z,11.43
2022-12-23T08:04:27.187Z,11.33
2022-12-23T08:06:55.168Z,11.35
2022-12-23T08:09:23.079Z,11.38
2022-12-23T08:11:50.969Z,11.36
2022-12-23T08:14:18.870Z,11.30
2022-12-23T08:16:46.742Z,11.35
2022-12-23T08:19:16.110Z,11.34
2022-12-23T08:21:44.094Z,11.20
2022-12-23T08:24:12.058Z,11.34
2022-12-23T08:26:39.993Z,11.48
2022-12-23T08:29:07.956Z,11.52
2022-12-23T08:31:36.042Z,11.45
2022-12-23T08:34:03.972Z,11.41
2022-12-23T08:36:35.419Z,11.40
2022-12-23T08:39:07.379Z,11.37
2022-12-23T08:41:38.009Z,11.58
2022-12-23T08:44:06.121Z,11.27
2022-12-23T08:46:34.807Z,11.33
2022-12-23T08:49:02.820Z,11.44
2022-12-23T08:51:30.808Z,11.40
2022-12-23T08:54:01.775Z,11.48
2022-12-23T08:56:32.349Z,11.50
2022-12-23T08:59:00.533Z,11.56
2022-12-23T09:01:31.243Z,11.51
2022-12-23T09:03:59.839Z,11.52
2022-12-23T09:06:32.912Z,11.35
2022-12-23T09:09:02.212Z,11.36
2022-12-23T09:11:30.812Z,11.19
2022-12-23T09:14:01.120Z,11.34
2022-12-23T09:16:29.739Z,11.45
2022-12-23T09:18:57.959Z,11.45
2022-12-23T09:21:26.325Z,11.43
2022-12-23T09:23:54.436Z,11.42
2022-12-23T09:26:25.721Z,11.58
2022-12-23T09:28:54.545Z,11.54
2022-12-23T09:31:23.450Z,11.26
2022-12-23T09:33:53.389Z,11.38
2022-12-23T09:36:22.258Z,11.22
2022-12-23T09:38:55.225Z,11.33
2022-12-23T09:41:53.428Z,10.96
2022-12-23T09:44:44.550Z,11.39
2022-12-23T09:47:16.865Z,11.30
2022-12-23T09:49:50.045Z,11.60
2022-12-23T09:52:25.123Z,11.60
2022-12-23T09:54:55.214Z,11.58
2022-12-23T09:57:35.282Z,11.55
2022-12-23T10:00:07.706Z,11.70
2022-12-23T10:02:53.632Z,11.67
2022-12-23T10:05:30.689Z,11.51
2022-12-23T10:08:03.343Z,11.71
2022-12-23T10:10:38.144Z,11.73
2022-12-23T10:13:12.328Z,11.35
2022-12-23T10:15:44.236Z,11.67
2022-12-23T10:18:18.397Z,11.68
2022-12-23T10:20:52.050Z,11.78
2022-12-23T10:23:28.685Z,11.54
2022-12-23T10:25:56.720Z,11.69
2022-12-23T10:28:29.536Z,11.47
2022-12-23T10:33:59.952Z,11.91
2022-12-23T10:36:38.172Z,12.13
2022-12-23T10:39:15.137Z,12.29
2022-12-23T10:41:49.819Z,12.25
2022-12-23T10:44:43.860Z,12.33
2022-12-23T10:47:20.832Z,12.32
2022-12-23T10:49:59.948Z,12.34
2022-12-23T10:52:33.459Z,12.18
2022-12-23T10:55:01.367Z,12.16
2022-12-23T10:57:31.182Z,12.03
2022-12-23T11:00:00.411Z,12.38
2022-12-23T11:02:46.359Z,12.55
2022-12-23T11:05:17.120Z,12.60
2022-12-23T11:07:47.032Z,12.68
2022-12-23T11:10:19.621Z,12.44
2022-12-23T11:12:49.926Z,12.17
2022-12-23T11:15:32.793Z,12.29
2022-12-23T11:18:03.089Z,12.34
2022-12-23T11:20:31.191Z,12.32
2022-12-23T11:23:02.139Z,12.27
2022-12-23T11:25:38.579Z,12.09
2022-12-23T11:28:13.687Z,12.17
2022-12-23T11:30:56.698Z,12.15
2022-12-23T11:33:27.684Z,12.14
2022-12-23T11:36:04.343Z,11.74
2022-12-23T11:38:33.371Z,11.84
2022-12-23T11:41:01.305Z,12.02
2022-12-23T11:43:29.948Z,11.91
2022-12-23T11:46:26.295Z,11.89
2022-12-23T11:49:07.487Z,12.06
2022-12-23T11:51:35.420Z,12.09
2022-12-23T11:54:03.855Z,11.93
2022-12-23T11:56:37.304Z,11.90
2022-12-23T11:59:08.864Z,11.93
2022-12-23T12:01:39.603Z,11.98
2022-12-23T12:04:10.328Z,11.91
2022-12-23T12:06:47.302Z,11.96
2022-12-23T12:09:20.057Z,11.83
2022-12-23T12:11:51.153Z,11.63
2022-12-23T12:14:23.934Z,11.78
2022-12-23T12:16:59.589Z,11.60
2022-12-23T12:19:32.817Z,11.83
2022-12-23T12:22:04.585Z,11.62
2022-12-23T12:24:39.751Z,11.69
2022-12-23T12:27:11.320Z,11.89
2022-12-23T12:29:45.638Z,12.03
2022-12-23T12:32:22.306Z,11.81
2022-12-23T12:34:54.406Z,12.03
2022-12-23T12:37:30.899Z,12.18
2022-12-23T12:40:03.649Z,11.85
2022-12-23T12:42:40.244Z,11.90
2022-12-23T12:45:17.677Z,12.08
2022-12-23T12:48:07.029Z,11.97
2022-12-23T12:50:45.345Z,11.87
2022-12-23T12:53:16.988Z,12.04
2022-12-23T12:55:51.857Z,12.02
2022-12-23T12:58:22.584Z,12.00
2022-12-23T13:01:01.113Z,11.98
2022-12-23T13:03:58.340Z,11.99
2022-12-23T13:06:33.409Z,12.00
2022-12-23T13:09:09.655Z,12.02
2022-12-23T13:11:45.075Z,11.99
2022-12-23T13:14:28.250Z,11.89
2022-12-23T13:17:05.945Z,11.83
2022-12-23T13:19:42.562Z,12.04
2022-12-23T13:22:14.208Z,12.07
2022-12-23T13:24:56.806Z,12.03
2022-12-23T13:27:32.739Z,11.99
2022-12-23T13:30:06.562Z,11.97
2022-12-23T13:33:10.438Z,11.57
2022-12-23T13:36:06.389Z,11.82
2022-12-23T13:38:46.665Z,11.36
2022-12-23T13:41:27.166Z,11.81
2022-12-23T13:43:57.772Z,11.77
2022-12-23T13:46:36.303Z,11.81
2022-12-23T13:49:11.348Z,11.47
2022-12-23T13:51:47.554Z,11.68
2022-12-23T13:54:24.544Z,11.54
2022-12-23T13:57:00.956Z,11.51
2022-12-23T13:59:40.411Z,11.68
2022-12-23T14:02:39.623Z,11.83
2022-12-23T14:05:27.585Z,11.56
2022-12-23T14:07:57.388Z,11.43
2022-12-23T14:10:26.643Z,11.72
2022-12-23T14:13:01.389Z,11.73
2022-12-23T14:15:53.161Z,11.71
2022-12-23T14:18:40.320Z,11.64
2022-12-23T14:21:17.523Z,11.70
2022-12-23T14:24:04.828Z,11.62
2022-12-23T14:27:05.134Z,11.68
2022-12-23T14:29:45.375Z,11.71
2022-12-23T14:32:22.117Z,11.76
2022-12-23T14:35:18.370Z,11.78
2022-12-23T14:38:24.313Z,11.72
2022-12-23T14:41:18.935Z,11.80
2022-12-23T14:43:58.082Z,11.72
2022-12-23T14:46:59.407Z,11.65
2022-12-23T14:49:43.923Z,11.73
2022-12-23T14:52:47.996Z,11.72
2022-12-23T14:55:54.314Z,11.66
2022-12-23T14:58:59.339Z,11.67
2022-12-23T15:01:32.803Z,11.74
2022-12-23T15:04:08.180Z,11.62
2022-12-23T15:06:39.183Z,11.59
2022-12-23T15:09:08.479Z,11.54
2022-12-23T15:11:37.791Z,11.65
2022-12-23T15:14:15.577Z,11.79
2022-12-23T15:16:45.163Z,11.76
2022-12-23T15:19:23.538Z,11.70
2022-12-23T15:22:01.990Z,11.71
2022-12-23T15:24:33.485Z,11.74
2022-12-23T15:27:25.790Z,11.72
2022-12-23T15:29:52.841Z,11.62
2022-12-23T15:32:23.205Z,11.66
2022-12-23T15:34:53.305Z,11.65
2022-12-23T15:37:27.628Z,11.63
2022-12-23T15:40:03.459Z,11.55
2022-12-23T15:42:35.538Z,11.58
2022-12-23T15:45:31.243Z,11.55
2022-12-23T15:47:59.439Z,11.44
2022-12-23T15:50:28.337Z,11.35
2022-12-23T15:53:00.206Z,11.37
2022-12-23T15:55:32.127Z,11.41
2022-12-23T15:58:01.671Z,11.38
2022-12-23T16:00:39.659Z,11.34
2022-12-23T16:03:13.790Z,11.27
2022-12-23T16:05:44.904Z,11.44
2022-12-23T16:08:29.111Z,11.46
2022-12-23T16:11:06.284Z,11.49
2022-12-23T16:13:34.606Z,11.53
2022-12-23T16:16:34.122Z,11.58
2022-12-23T16:19:02.092Z,11.54
2022-12-23T16:21:33.138Z,11.46
2022-12-23T16:24:02.243Z,11.52
2022-12-23T16:26:30.137Z,11.42
2022-12-23T16:29:01.804Z,11.51
2022-12-23T16:31:31.173Z,11.49
2022-12-23T16:34:00.282Z,11.60
2022-12-23T16:36:34.977Z,11.59
2022-12-23T16:39:22.691Z,11.56
2022-12-23T16:41:51.125Z,11.60
2022-12-23T16:44:19.003Z,11.49
2022-12-23T16:46:50.643Z,11.46
2022-12-23T16:49:20.446Z,11.41
2022-12-23T16:51:49.146Z,11.46
2022-12-23T16:54:19.242Z,11.51
2022-12-23T16:56:47.874Z,11.50
2022-12-23T16:59:16.124Z,11.58
2022-12-23T17:01:46.654Z,11.53
2022-12-23T17:04:16.355Z,11.60
2022-12-23T17:06:46.519Z,11.60
2022-12-23T17:09:14.636Z,11.59
2022-12-23T17:11:44.809Z,11.61
2022-12-23T17:14:17.743Z,11.54
2022-12-23T17:16:46.126Z,11.36
2022-12-23T17:19:14.181Z,11.33
2022-12-23T17:21:45.547Z,11.39
2022-12-23T17:24:18.017Z,11.52
2022-12-23T17:26:45.886Z,11.22
2022-12-23T17:29:14.299Z,11.25
2022-12-23T17:31:43.250Z,11.22
2022-12-23T17:34:16.472Z,11.32
2022-12-23T17:36:50.059Z,11.35
2022-12-23T17:39:18.490Z,11.39
2022-12-23T17:41:46.588Z,11.31
2022-12-23T17:44:15.562Z,11.18
2022-12-23T17:46:44.030Z,11.26
2022-12-23T17:49:12.471Z,11.23
2022-12-23T17:51:41.268Z,11.14
2022-12-23T17:54:24.362Z,11.20
2022-12-23T17:56:53.138Z,11.19
2022-12-23T17:59:21.353Z,11.11
2022-12-23T18:01:49.451Z,11.31
2022-12-23T18:04:17.420Z,11.30
2022-12-23T18:06:45.329Z,10.93
2022-12-23T18:09:14.509Z,10.74
2022-12-23T18:11:45.228Z,11.15
2022-12-23T18:14:17.279Z,11.22
2022-12-23T18:16:45.319Z,11.36
2022-12-23T18:19:18.145Z,11.00
2022-12-23T18:21:46.587Z,10.97
2022-12-23T18:24:15.845Z,10.62
2022-12-23T18:26:43.742Z,10.82
2022-12-23T18:29:11.689Z,10.96
2022-12-23T18:31:51.185Z,11.18
2022-12-23T18:34:20.461Z,11.33
2022-12-23T18:36:51.498Z,11.34
2022-12-23T18:39:21.666Z,11.45
2022-12-23T18:41:49.534Z,11.42
2022-12-23T18:44:19.572Z,11.37
2022-12-23T18:46:47.943Z,11.36
2022-12-23T18:49:15.887Z,11.42
2022-12-23T18:51:43.756Z,11.38
2022-12-23T18:54:15.241Z,11.40
2022-12-23T18:56:44.493Z,11.41
2022-12-23T18:59:17.052Z,11.38
2022-12-23T19:01:45.395Z,11.31
2022-12-23T19:04:13.608Z,11.07
2022-12-23T19:06:41.933Z,10.88
2022-12-23T19:09:17.143Z,10.96
2022-12-23T19:11:47.586Z,10.82
2022-12-23T19:14:15.506Z,10.86
2022-12-23T19:16:49.239Z,10.80
2022-12-23T19:19:19.304Z,11.01
2022-12-23T19:21:47.380Z,11.21
2022-12-23T19:24:15.228Z,11.17
2022-12-23T19:26:43.116Z,11.29
2022-12-23T19:29:12.389Z,11.37
2022-12-23T19:31:40.667Z,11.36
2022-12-23T19:34:14.676Z,11.08
2022-12-23T19:36:43.613Z,11.28
2022-12-23T19:39:16.092Z,11.14
2022-12-23T19:41:44.605Z,11.09
2022-12-23T19:44:13.868Z,10.84
2022-12-23T19:46:41.796Z,10.80
2022-12-23T19:49:14.061Z,10.81
2022-12-23T19:51:45.653Z,10.82
2022-12-23T19:54:13.494Z,11.04
2022-12-23T19:56:41.497Z,10.85
2022-12-23T19:59:09.335Z,10.81
2022-12-23T20:01:38.682Z,10.84
2022-12-23T20:04:06.613Z,10.59
2022-12-23T20:06:38.230Z,10.57
2022-12-23T20:09:07.052Z,10.02
2022-12-23T20:11:36.879Z,10.35
2022-12-23T20:14:06.270Z,10.45
2022-12-23T20:16:35.212Z,10.55
2022-12-23T20:19:05.210Z,10.66
2022-12-23T20:21:33.961Z,10.31
2022-12-23T20:24:01.888Z,10.29
2022-12-23T20:26:30.062Z,10.27
2022-12-23T20:28:58.459Z,10.25
2022-12-23T20:31:28.560Z,10.63
2022-12-23T20:33:57.638Z,10.67
2022-12-23T20:36:28.552Z,10.27
2022-12-23T20:38:57.098Z,10.57
2022-12-23T20:41:27.772Z,10.68
2022-12-23T20:46:43.689Z,10.46
2022-12-23T20:49:11.616Z,10.29
2022-12-23T20:51:40.850Z,10.46
2022-12-23T20:54:09.282Z,10.16
2022-12-23T20:56:37.328Z,10.50
2022-12-23T20:59:05.207Z,10.76
2022-12-23T21:01:36.162Z,10.66
2022-12-23T21:04:06.585Z,10.85
2022-12-23T21:06:35.660Z,10.78
2022-12-23T21:09:06.808Z,10.65
2022-12-23T21:11:36.226Z,10.80
2022-12-23T21:14:07.135Z,11.00
2022-12-23T21:16:36.578Z,10.69
2022-12-23T21:19:05.364Z,10.68
2022-12-23T21:21:33.309Z,10.30
2022-12-23T21:24:04.480Z,9.72
2022-12-23T21:26:36.280Z,10.27
2022-12-23T21:29:07.446Z,10.09
2022-12-23T21:31:37.704Z,10.10
2022-12-23T21:34:06.459Z,9.92
2022-12-23T21:36:36.993Z,10.06
2022-12-23T21:39:06.197Z,9.98
2022-12-23T21:41:38.146Z,10.18
2022-12-23T21:44:06.530Z,10.18
2022-12-23T21:46:34.850Z,9.65
2022-12-23T21:49:02.817Z,10.08
2022-12-23T21:51:38.938Z,9.91
2022-12-23T21:54:08.415Z,9.58
2022-12-23T21:56:37.718Z,9.59
2022-12-23T21:59:07.637Z,9.63
2022-12-23T22:01:36.177Z,9.59
2022-12-23T22:04:04.402Z,9.74
2022-12-23T22:06:35.837Z,9.92
2022-12-23T22:09:05.730Z,9.96
2022-12-23T22:11:36.302Z,9.97
2022-12-23T22:14:07.635Z,9.87
2022-12-23T22:16:36.432Z,9.63
2022-12-23T22:19:06.364Z,9.83
2022-12-23T22:21:35.867Z,9.94
2022-12-23T22:24:04.471Z,9.53
2022-12-23T22:26:33.633Z,9.36
2022-12-23T22:29:03.365Z,9.54
2022-12-23T22:31:37.394Z,9.28
2022-12-23T22:34:06.230Z,9.54
2022-12-23T22:36:34.699Z,9.65
2022-12-23T22:39:03.525Z,9.58
2022-12-23T22:41:32.500Z,9.85
2022-12-23T22:44:00.663Z,9.27
2022-12-23T22:46:29.463Z,8.99
2022-12-23T22:48:59.761Z,9.67
2022-12-23T22:51:29.697Z,9.18
2022-12-23T22:53:57.705Z,9.51
2022-12-23T22:56:26.688Z,9.08
2022-12-23T22:58:55.385Z,9.58
2022-12-23T23:01:25.257Z,9.31
2022-12-23T23:03:57.287Z,9.35
2022-12-23T23:06:30.186Z,9.14
2022-12-23T23:08:58.274Z,9.55
2022-12-23T23:11:27.876Z,9.68
2022-12-23T23:13:56.464Z,9.74
2022-12-23T23:16:24.828Z,9.96
2022-12-23T23:18:53.896Z,10.20
2022-12-23T23:21:22.451Z,10.20
2022-12-23T23:23:51.996Z,10.14
2022-12-23T23:26:21.225Z,9.98
2022-12-23T23:28:49.312Z,9.76
2022-12-23T23:31:41.084Z,9.68
2022-12-23T23:34:05.091Z,9.37
2022-12-23T23:36:33.353Z,9.24
2022-12-23T23:39:02.675Z,9.83
2022-12-23T23:41:30.588Z,9.99
2022-12-23T23:43:58.526Z,9.86
2022-12-23T23:46:26.483Z,9.89
2022-12-23T23:48:54.452Z,9.89
2022-12-23T23:51:22.326Z,9.97
2022-12-23T23:53:50.179Z,9.83
2022-12-23T23:56:25.050Z,9.59
2022-12-23T23:58:53.881Z,9.65
